This is the latest recevied weather packets stored in our database for station/object VU3ZAG-WX. If no packets are shown the sender has not sent any weather packets the latest 10 day(s).
| Time | Temp. | Humidity | Pressure | Rain* | Wind** | Luminosity | Snow |
|---|---|---|---|---|---|---|---|
| 1777566519 | 30.56° C | 62% | 1011 hPa | - | - | - | - |
| 1777565914 | 30.56° C | 59% | 1010.9 hPa | - | - | - | - |
| 1777565308 | 30.56° C | 59% | 1010.8 hPa | - | - | - | - |
| 1777564703 | 30° C | 61% | 1010.7 hPa | - | - | - | - |
| 1777564097 | 30° C | 62% | 1010.6 hPa | - | - | - | - |
| 1777563492 | 30° C | 60% | 1010.4 hPa | - | - | - | - |
| 1777562886 | 30° C | 61% | 1010.2 hPa | - | - | - | - |
| 1777562281 | 30.56° C | 60% | 1010.1 hPa | - | - | - | - |
| 1777561675 | 30° C | 61% | 1010.1 hPa | - | - | - | - |
| 1777561069 | 30.56° C | 60% | 1010 hPa | - | - | - | - |
| 1777560464 | 30.56° C | 62% | 1009.9 hPa | - | - | - | - |
| 1777559858 | 30.56° C | 63% | 1009.7 hPa | - | - | - | - |
| 1777559252 | 31.11° C | 63% | 1009.6 hPa | - | - | - | - |
| 1777558646 | 31.11° C | 61% | 1009.6 hPa | - | - | - | - |
| 1777558041 | 31.11° C | 58% | 1009.6 hPa | - | - | - | - |
| 1777557436 | 31.11° C | 58% | 1009.6 hPa | - | - | - | - |
| 1777556830 | 30.56° C | 59% | 1009.7 hPa | - | - | - | - |
| 1777556225 | 30° C | 64% | 1009.8 hPa | - | - | - | - |
| 1777555619 | 30.56° C | 63% | 1009.8 hPa | - | - | - | - |
| 1777555013 | 31.11° C | 62% | 1009.9 hPa | - | - | - | - |
| 1777554408 | 31.11° C | 64% | 1009.9 hPa | - | - | - | - |
| 1777553802 | 32.22° C | 59% | 1009.9 hPa | - | - | - | - |
| 1777553196 | 32.22° C | 64% | 1009.7 hPa | - | - | - | - |
| 1777552590 | 33.33° C | 58% | 1009.5 hPa | - | - | - | - |
| 1777551985 | 34.44° C | 55% | 1009.2 hPa | - | - | - | - |
* Rain since midnight (hover to see other rain measurements)
** Current wind speed in m/s (hover to see current wind gust speed)